Time;durP1;ratioP1;P1;durP2;ratioP2;P2;SDS_P1;SDS_P2;PMS_P1;PMS_P2;Temp;Humidity;BMP_temperature;BMP_pressure;BME280_temperature;BME280_humidity;BME280_pressure;Samples;Min_cycle;Max_cycle;Signal;HPM_P1;HPM_P2
2022/03/20 00:01:17;;;;;;;0.60;0.60;;;3.70;92.70;;;;;;5064386;28;20483;-86
2022/03/20 00:03:44;;;;;;;0.30;0.20;;;3.80;92.60;;;;;;5063656;28;20562;-86
2022/03/20 00:06:11;;;;;;;0.30;0.20;;;3.80;92.40;;;;;;5062421;28;20539;-85
2022/03/20 00:08:38;;;;;;;0.40;0.30;;;3.80;92.50;;;;;;5064684;28;20459;-86
2022/03/20 00:11:06;;;;;;;0.93;0.93;;;3.80;92.50;;;;;;5079977;28;20448;-85
2022/03/20 00:13:33;;;;;;;3.37;2.17;;;3.80;92.50;;;;;;5069248;28;20453;-86
2022/03/20 00:16:01;;;;;;;0.30;0.20;;;3.80;92.40;;;;;;5066358;28;20564;-86
2022/03/20 00:18:28;;;;;;;0.97;0.97;;;3.90;92.50;;;;;;5064572;28;20490;-86
2022/03/20 00:20:57;;;;;;;1.07;0.97;;;3.90;92.30;;;;;;5069003;28;20511;-85
2022/03/20 00:23:25;;;;;;;3.90;2.43;;;3.90;92.30;;;;;;5064695;28;20506;-86
2022/03/20 00:25:53;;;;;;;0.80;0.70;;;4.00;92.10;;;;;;5068041;28;20522;-86
2022/03/20 00:28:24;;;;;;;0.40;0.30;;;4.00;91.90;;;;;;5065872;28;20469;-86
2022/03/20 00:30:52;;;;;;;0.50;0.50;;;4.00;91.60;;;;;;5068486;28;20461;-86
2022/03/20 00:33:19;;;;;;;1.17;1.07;;;4.00;91.70;;;;;;5067356;28;20509;-85
2022/03/20 00:35:46;;;;;;;2.43;2.23;;;3.90;91.60;;;;;;5069217;28;20917;-87
2022/03/20 00:38:13;;;;;;;0.30;0.10;;;3.90;91.70;;;;;;5065278;28;20952;-85
2022/03/20 00:40:40;;;;;;;2.00;1.90;;;3.90;91.70;;;;;;5067967;28;20585;-85
2022/03/20 00:43:08;;;;;;;0.30;0.20;;;3.90;91.60;;;;;;5064132;28;20601;-86
2022/03/20 00:45:36;;;;;;;0.83;0.83;;;3.80;91.80;;;;;;5066062;28;20465;-85
2022/03/20 00:48:04;;;;;;;0.30;0.20;;;3.90;91.50;;;;;;5063316;28;20463;-85
2022/03/20 00:50:31;;;;;;;0.30;0.10;;;3.80;91.40;;;;;;5068787;28;20905;-85
2022/03/20 00:52:58;;;;;;;2.10;0.70;;;3.80;91.30;;;;;;5068120;28;20899;-86
2022/03/20 00:55:25;;;;;;;0.97;0.87;;;3.90;91.00;;;;;;5070670;28;20467;-88
2022/03/20 00:57:52;;;;;;;2.77;2.63;;;3.80;90.80;;;;;;5078024;28;20501;-87
2022/03/20 01:00:19;;;;;;;1.23;0.57;;;3.80;90.60;;;;;;5072871;28;20902;-87
2022/03/20 01:02:48;;;;;;;0.40;0.30;;;3.80;90.60;;;;;;5067029;28;20779;-87
2022/03/20 01:05:15;;;;;;;0.30;0.10;;;3.80;90.40;;;;;;5071845;28;20459;-87
2022/03/20 01:07:43;;;;;;;0.30;0.20;;;3.80;90.10;;;;;;5069528;28;20448;-86
2022/03/20 01:10:12;;;;;;;0.73;0.73;;;3.90;89.40;;;;;;5072278;28;21042;-87
2022/03/20 01:12:40;;;;;;;0.73;0.73;;;3.90;88.70;;;;;;5063711;28;20496;-87
2022/03/20 01:15:10;;;;;;;2.07;1.97;;;3.90;88.60;;;;;;5074211;28;20637;-86
2022/03/20 01:17:38;;;;;;;0.30;0.10;;;3.80;88.40;;;;;;5069085;28;20837;-85
2022/03/20 01:20:10;;;;;;;0.60;0.60;;;3.70;88.40;;;;;;5064207;28;20973;-85
2022/03/20 01:22:40;;;;;;;0.30;0.13;;;3.70;88.20;;;;;;5069674;28;20875;-87
2022/03/20 01:25:09;;;;;;;0.30;0.17;;;3.70;88.20;;;;;;5066172;28;20463;-86
2022/03/20 01:27:36;;;;;;;0.30;0.10;;;3.80;86.70;;;;;;5069105;28;20450;-86
2022/03/20 01:30:04;;;;;;;0.30;0.10;;;3.90;86.00;;;;;;5062396;28;20457;-86
2022/03/20 01:32:31;;;;;;;0.30;0.10;;;3.90;85.40;;;;;;5071381;28;20509;-87
2022/03/20 01:34:58;;;;;;;0.30;0.20;;;3.80;85.50;;;;;;5068546;28;20509;-86
2022/03/20 01:37:26;;;;;;;1.37;1.37;;;3.70;86.00;;;;;;5068280;28;20461;-86
2022/03/20 01:39:53;;;;;;;0.30;0.10;;;3.70;85.80;;;;;;5066896;28;20449;-86
2022/03/20 01:42:21;;;;;;;0.43;0.40;;;3.70;85.60;;;;;;5071538;28;20553;-86
2022/03/20 01:44:49;;;;;;;0.30;0.20;;;3.70;85.90;;;;;;5070306;28;20549;-85
2022/03/20 01:47:16;;;;;;;0.30;0.10;;;3.70;85.80;;;;;;5071802;28;20483;-86
2022/03/20 01:49:43;;;;;;;0.93;0.93;;;3.70;85.50;;;;;;5058754;28;20465;-86
2022/03/20 01:52:13;;;;;;;0.30;0.20;;;3.70;85.50;;;;;;5066100;28;20495;-87
2022/03/20 01:54:44;;;;;;;0.30;0.10;;;3.80;85.00;;;;;;5068187;28;20772;-86
2022/03/20 01:57:14;;;;;;;1.90;1.80;;;3.80;84.90;;;;;;5068834;28;20471;-86
2022/03/20 01:59:41;;;;;;;0.30;0.20;;;3.70;84.90;;;;;;5067755;28;20495;-85
2022/03/20 02:02:08;;;;;;;5.23;0.70;;;3.70;84.70;;;;;;5071515;28;20487;-87
2022/03/20 02:04:37;;;;;;;0.57;0.40;;;3.70;84.60;;;;;;5069075;28;20533;-87
2022/03/20 02:07:05;;;;;;;0.30;0.20;;;3.80;84.50;;;;;;5067308;28;20528;-87
2022/03/20 02:09:32;;;;;;;0.40;0.40;;;3.70;84.60;;;;;;5066724;28;20505;-86
2022/03/20 02:12:00;;;;;;;3.60;2.63;;;3.70;85.00;;;;;;5077054;28;20455;-85
2022/03/20 02:14:28;;;;;;;0.30;0.10;;;3.70;84.70;;;;;;5087028;28;20463;-85
2022/03/20 02:16:55;;;;;;;0.67;0.67;;;3.70;84.30;;;;;;5062025;28;20499;-86
2022/03/20 02:19:24;;;;;;;0.30;0.10;;;3.70;84.50;;;;;;5069908;28;20566;-86
2022/03/20 02:21:53;;;;;;;0.40;0.40;;;3.70;84.10;;;;;;5068076;28;20487;-85
2022/03/20 02:24:40;;;;;;;0.30;0.10;;;3.80;83.30;;;;;;5068969;28;20463;-87
2022/03/20 02:27:11;;;;;;;0.40;0.40;;;3.70;83.50;;;;;;5067338;28;20451;-87
2022/03/20 02:29:39;;;;;;;0.80;0.57;;;3.60;83.70;;;;;;5062774;28;20871;-87
2022/03/20 02:32:08;;;;;;;0.40;0.30;;;3.60;83.60;;;;;;5065264;28;20471;-86
2022/03/20 02:34:36;;;;;;;0.53;0.53;;;3.60;83.50;;;;;;5065592;28;20512;-86
2022/03/20 02:37:05;;;;;;;0.30;0.20;;;3.60;83.40;;;;;;5068205;28;20463;-86
2022/03/20 02:39:33;;;;;;;0.30;0.20;;;3.50;83.20;;;;;;5068863;28;20505;-87
2022/03/20 02:42:03;;;;;;;0.30;0.10;;;3.40;83.60;;;;;;5070550;28;20706;-87
2022/03/20 02:44:50;;;;;;;0.30;0.10;;;3.40;83.30;;;;;;5068330;28;20476;-86
2022/03/20 02:47:23;;;;;;;2.77;0.83;;;3.40;83.20;;;;;;5066527;28;20540;-87
2022/03/20 02:49:55;;;;;;;0.30;0.20;;;3.50;82.90;;;;;;5069046;28;20548;-86
2022/03/20 02:52:28;;;;;;;0.30;0.20;;;3.50;82.70;;;;;;5071007;28;20544;-88
2022/03/20 02:54:55;;;;;;;0.40;0.30;;;3.50;82.60;;;;;;5068429;28;20461;-89
2022/03/20 02:57:22;;;;;;;0.30;0.10;;;3.40;82.30;;;;;;5062302;28;20463;-89
2022/03/20 02:59:49;;;;;;;0.63;0.63;;;3.40;81.90;;;;;;5066371;28;20929;-88
2022/03/20 03:02:16;;;;;;;0.30;0.10;;;3.40;82.40;;;;;;5065987;28;20561;-88
2022/03/20 03:04:43;;;;;;;0.73;0.63;;;3.40;82.10;;;;;;5060604;28;20449;-89
2022/03/20 03:07:11;;;;;;;0.30;0.20;;;3.30;82.40;;;;;;5072729;28;20456;-88
2022/03/20 03:12:24;;;;;;;0.30;0.20;;;3.30;81.70;;;;;;5063133;28;20451;-88
2022/03/20 03:17:35;;;;;;;0.50;0.50;;;3.30;81.30;;;;;;5065967;28;20442;-86
2022/03/20 03:20:03;;;;;;;0.40;0.30;;;3.30;81.40;;;;;;5061762;28;20448;-86
2022/03/20 03:22:30;;;;;;;0.30;0.20;;;3.30;81.30;;;;;;5068432;28;20522;-89
2022/03/20 03:24:58;;;;;;;0.30;0.20;;;3.30;80.90;;;;;;5061542;28;20480;-89
2022/03/20 03:27:25;;;;;;;0.30;0.20;;;3.30;81.00;;;;;;5059450;28;20476;-88
2022/03/20 03:29:52;;;;;;;0.70;0.53;;;3.30;81.00;;;;;;5069738;28;20544;-89
2022/03/20 03:32:20;;;;;;;0.30;0.10;;;3.20;81.10;;;;;;5067341;28;20588;-89
2022/03/20 03:37:32;;;;;;;0.30;0.20;;;3.10;81.50;;;;;;5062647;28;21235;-88
2022/03/20 03:40:01;;;;;;;0.40;0.30;;;3.20;81.10;;;;;;5066683;28;21020;-87
2022/03/20 03:42:28;;;;;;;0.30;0.10;;;3.20;81.20;;;;;;5065330;28;20545;-88
2022/03/20 03:44:55;;;;;;;0.40;0.23;;;3.10;81.30;;;;;;5066744;28;20455;-87
2022/03/20 03:47:24;;;;;;;1.03;1.03;;;3.10;81.30;;;;;;5070003;28;20452;-87
2022/03/20 03:49:51;;;;;;;0.63;0.63;;;3.10;81.50;;;;;;5064302;28;20460;-88
2022/03/20 03:52:19;;;;;;;1.10;1.10;;;3.00;81.60;;;;;;5067604;28;20942;-88
2022/03/20 03:54:46;;;;;;;1.83;0.93;;;3.00;82.50;;;;;;5086626;28;20490;-87
2022/03/20 03:57:15;;;;;;;0.30;0.10;;;3.00;82.00;;;;;;5074823;28;20852;-87
2022/03/20 03:59:41;;;;;;;2.70;0.70;;;2.90;82.30;;;;;;5062600;28;20867;-87
2022/03/20 04:02:08;;;;;;;0.40;0.40;;;2.90;82.20;;;;;;5061915;28;20522;-88
2022/03/20 04:04:35;;;;;;;0.30;0.20;;;2.90;82.70;;;;;;5066475;28;20463;-88
2022/03/20 04:07:04;;;;;;;0.30;0.20;;;2.80;83.00;;;;;;5067536;28;20455;-88
2022/03/20 04:09:31;;;;;;;0.60;0.60;;;2.80;83.30;;;;;;5067392;28;20456;-89
2022/03/20 04:11:58;;;;;;;0.63;0.63;;;2.70;84.30;;;;;;5065912;28;20501;-88
2022/03/20 04:14:28;;;;;;;0.30;0.10;;;2.70;83.70;;;;;;5066473;28;20487;-88
2022/03/20 04:16:55;;;;;;;0.30;0.20;;;2.60;84.30;;;;;;5066341;28;20590;-88
2022/03/20 04:19:23;;;;;;;3.07;1.33;;;2.60;84.70;;;;;;5065686;28;20506;-89
2022/03/20 04:21:51;;;;;;;1.17;1.10;;;2.50;84.80;;;;;;5063844;28;20513;-89
2022/03/20 04:24:18;;;;;;;1.43;1.43;;;2.50;85.00;;;;;;5069423;28;20556;-88
2022/03/20 04:26:46;;;;;;;0.50;0.50;;;2.50;85.20;;;;;;5065070;28;20464;-90
2022/03/20 04:29:13;;;;;;;0.30;0.10;;;2.50;85.30;;;;;;5066993;28;20474;-88
2022/03/20 04:31:41;;;;;;;0.30;0.10;;;2.50;85.30;;;;;;5068778;28;20456;-88
2022/03/20 04:34:10;;;;;;;0.30;0.17;;;2.50;85.20;;;;;;5067866;28;20531;-89
2022/03/20 04:36:37;;;;;;;0.30;0.10;;;2.50;85.30;;;;;;5066262;28;20458;-89
2022/03/20 04:39:04;;;;;;;0.60;0.60;;;2.40;85.90;;;;;;5067648;28;20895;-88
2022/03/20 04:41:31;;;;;;;0.30;0.20;;;2.40;85.80;;;;;;5064973;28;20483;-86
2022/03/20 04:43:58;;;;;;;0.40;0.30;;;2.40;85.60;;;;;;5068609;28;20228;-88
2022/03/20 04:46:25;;;;;;;0.30;0.10;;;2.40;86.00;;;;;;5063674;28;20479;-88
2022/03/20 04:59:54;;;;;;;0.30;0.20;;;2.20;86.40;;;;;;5067645;28;20223;-87
2022/03/20 05:02:21;;;;;;;0.30;0.10;;;2.20;86.50;;;;;;5062327;28;20229;-88
2022/03/20 05:04:49;;;;;;;0.30;0.20;;;2.10;86.40;;;;;;5064360;28;20254;-88
2022/03/20 05:07:16;;;;;;;0.30;0.10;;;2.10;86.30;;;;;;5067347;28;20500;-88
2022/03/20 05:15:13;;;;;;;0.70;0.50;;;2.10;85.80;;;;;;5063391;28;20207;-88
2022/03/20 05:17:40;;;;;;;1.52;1.52;;;2.00;86.30;;;;;;5067578;28;20244;-88
2022/03/20 05:20:10;;;;;;;0.30;0.20;;;2.00;85.90;;;;;;5069592;28;20277;-89
2022/03/20 05:22:39;;;;;;;0.30;0.10;;;2.00;85.80;;;;;;5067194;28;20722;-88
2022/03/20 05:25:09;;;;;;;0.30;0.10;;;2.00;85.60;;;;;;5065695;28;20656;-87
2022/03/20 05:27:36;;;;;;;0.33;0.17;;;2.00;85.80;;;;;;5067379;28;20495;-89
2022/03/20 05:30:07;;;;;;;0.53;0.53;;;2.00;85.70;;;;;;5067002;28;20871;-88
2022/03/20 05:32:36;;;;;;;0.30;0.10;;;2.10;85.30;;;;;;5064825;28;20576;-87
2022/03/20 05:35:05;;;;;;;0.30;0.20;;;2.00;85.20;;;;;;5068655;28;20252;-88
2022/03/20 05:37:33;;;;;;;0.30;0.10;;;2.00;85.60;;;;;;5067419;28;20466;-86
2022/03/20 05:40:01;;;;;;;0.95;0.95;;;2.10;85.10;;;;;;5068954;28;21645;-89
2022/03/20 05:42:28;;;;;;;0.30;0.10;;;2.10;85.00;;;;;;5071345;28;20395;-87
2022/03/20 05:44:55;;;;;;;0.30;0.10;;;2.10;85.20;;;;;;5068626;28;20257;-87
2022/03/20 05:47:22;;;;;;;0.30;0.10;;;2.10;85.00;;;;;;5071826;28;20504;-87
2022/03/20 05:49:49;;;;;;;0.40;0.30;;;2.10;84.90;;;;;;5070942;28;20301;-87
2022/03/20 05:52:16;;;;;;;0.30;0.10;;;2.10;85.20;;;;;;5072278;28;20220;-88
2022/03/20 05:54:44;;;;;;;0.30;0.10;;;2.10;84.90;;;;;;5068333;28;20198;-87
2022/03/20 05:59:56;;;;;;;0.50;0.50;;;2.20;84.70;;;;;;5082993;28;20732;-88
2022/03/20 06:02:22;;;;;;;0.63;0.63;;;2.20;84.40;;;;;;5066776;28;20281;-88
2022/03/20 06:04:51;;;;;;;0.30;0.10;;;2.30;84.50;;;;;;5069337;28;20458;-88
2022/03/20 06:07:18;;;;;;;0.50;0.20;;;2.30;84.00;;;;;;5068654;28;20198;-87
2022/03/20 06:09:46;;;;;;;0.30;0.20;;;2.40;83.90;;;;;;5068676;28;20250;-87
2022/03/20 06:12:13;;;;;;;0.30;0.10;;;2.40;83.70;;;;;;5068374;28;20209;-88
2022/03/20 06:14:40;;;;;;;1.13;1.13;;;2.50;82.50;;;;;;5070706;28;20254;-88
2022/03/20 06:17:09;;;;;;;2.43;2.00;;;2.60;82.70;;;;;;5070630;28;20821;-87
2022/03/20 06:19:37;;;;;;;0.30;0.20;;;2.60;82.20;;;;;;5070008;28;20801;-91
2022/03/20 06:22:05;;;;;;;0.40;0.20;;;2.70;82.00;;;;;;5071750;28;20482;-85
2022/03/20 06:24:33;;;;;;;0.30;0.10;;;2.70;82.10;;;;;;5070282;28;20512;-86
2022/03/20 06:27:02;;;;;;;0.70;0.50;;;2.70;81.70;;;;;;5072154;28;20456;-89
2022/03/20 06:29:29;;;;;;;0.30;0.10;;;2.70;81.50;;;;;;5071587;28;20451;-86
2022/03/20 06:31:57;;;;;;;0.30;0.10;;;2.80;80.60;;;;;;5054325;28;20515;-85
2022/03/20 06:34:24;;;;;;;0.30;0.10;;;2.90;80.70;;;;;;5063884;28;20950;-86
2022/03/20 06:36:55;;;;;;;1.57;1.20;;;3.00;80.50;;;;;;5055724;28;20515;-86
2022/03/20 06:39:22;;;;;;;0.50;0.50;;;3.00;80.40;;;;;;5054359;28;21149;-88
2022/03/20 06:41:49;;;;;;;0.30;0.20;;;3.10;79.70;;;;;;5054738;28;20294;-86
2022/03/20 06:44:18;;;;;;;0.30;0.10;;;3.20;79.60;;;;;;5051850;28;20483;-85
2022/03/20 06:46:46;;;;;;;0.40;0.20;;;3.20;79.10;;;;;;5056291;28;20530;-88
2022/03/20 06:49:13;;;;;;;0.63;0.63;;;3.30;78.80;;;;;;5071599;28;20474;-87
2022/03/20 06:51:41;;;;;;;0.53;0.53;;;3.40;78.60;;;;;;5071841;28;20524;-87
2022/03/20 06:54:07;;;;;;;0.30;0.20;;;3.50;78.00;;;;;;5080466;28;20497;-85
2022/03/20 06:56:34;;;;;;;0.67;0.67;;;3.60;77.20;;;;;;5069954;28;20467;-84
2022/03/20 06:59:01;;;;;;;0.30;0.20;;;3.70;77.30;;;;;;5071362;28;20480;-84
2022/03/20 07:01:30;;;;;;;0.30;0.20;;;3.70;77.50;;;;;;5062587;28;20527;-84
2022/03/20 07:03:57;;;;;;;1.27;1.27;;;3.80;76.50;;;;;;5060336;28;20900;-86
2022/03/20 07:06:26;;;;;;;5.83;3.20;;;3.90;76.50;;;;;;5051683;28;20510;-86
2022/03/20 07:08:58;;;;;;;0.50;0.50;;;4.00;75.90;;;;;;5051503;28;20526;-84
2022/03/20 07:11:32;;;;;;;0.40;0.30;;;4.00;74.90;;;;;;5067940;28;20463;-84
2022/03/20 07:14:00;;;;;;;1.53;1.43;;;4.10;75.00;;;;;;5064720;28;20452;-87
2022/03/20 07:16:30;;;;;;;1.07;0.77;;;4.10;74.10;;;;;;5062103;28;20603;-86
2022/03/20 07:18:59;;;;;;;1.70;0.60;;;4.20;74.00;;;;;;5050391;28;20487;-84
2022/03/20 07:21:28;;;;;;;2.87;2.77;;;4.30;73.60;;;;;;5050067;28;20506;-84
2022/03/20 07:23:57;;;;;;;1.20;0.93;;;4.40;73.90;;;;;;5057691;28;20574;-85
2022/03/20 07:31:53;;;;;;;0.30;0.20;;;4.60;72.80;;;;;;5061154;28;20957;-84
2022/03/20 07:34:22;;;;;;;0.43;0.43;;;4.70;72.30;;;;;;5068086;28;20479;-84
2022/03/20 07:36:50;;;;;;;2.27;2.20;;;4.80;72.40;;;;;;5069368;28;20448;-84
2022/03/20 07:39:17;;;;;;;1.43;1.13;;;4.90;71.60;;;;;;5069150;28;20458;-83
2022/03/20 07:41:44;;;;;;;0.33;0.20;;;5.00;71.50;;;;;;5067298;28;20455;-84
2022/03/20 07:44:11;;;;;;;0.70;0.57;;;5.10;70.90;;;;;;5057959;28;20496;-86
2022/03/20 07:46:40;;;;;;;0.40;0.40;;;5.20;70.40;;;;;;5064179;28;20505;-84
2022/03/20 07:49:08;;;;;;;0.83;0.83;;;5.30;70.80;;;;;;5078883;28;20475;-85
2022/03/20 07:51:37;;;;;;;0.83;0.83;;;5.20;70.20;;;;;;5070917;28;20448;-84
2022/03/20 07:54:04;;;;;;;0.80;0.43;;;5.40;70.90;;;;;;5069632;28;20447;-84
2022/03/20 07:56:34;;;;;;;0.70;0.33;;;5.50;70.30;;;;;;5067799;28;20460;-84
2022/03/20 07:59:02;;;;;;;0.30;0.20;;;5.50;69.70;;;;;;5065521;28;20490;-83
2022/03/20 08:01:29;;;;;;;0.40;0.30;;;5.70;69.90;;;;;;5060328;28;20445;-84
2022/03/20 08:03:56;;;;;;;0.90;0.80;;;5.80;68.80;;;;;;5060020;28;21120;-84
2022/03/20 08:06:23;;;;;;;0.30;0.20;;;5.90;69.00;;;;;;5067175;28;20456;-85
2022/03/20 08:08:52;;;;;;;0.43;0.23;;;6.00;67.60;;;;;;5068613;28;20444;-86
2022/03/20 08:11:20;;;;;;;0.37;0.30;;;6.20;68.10;;;;;;5062856;28;20459;-84
2022/03/20 08:13:47;;;;;;;0.30;0.20;;;6.20;66.50;;;;;;5053075;28;20513;-85
2022/03/20 08:16:15;;;;;;;1.53;1.50;;;6.20;67.00;;;;;;5069977;28;20445;-85
2022/03/20 08:18:44;;;;;;;0.30;0.13;;;6.30;67.80;;;;;;5064047;28;20583;-84
2022/03/20 08:21:12;;;;;;;0.30;0.17;;;6.40;66.30;;;;;;5053944;28;20447;-85
2022/03/20 08:23:39;;;;;;;0.67;0.30;;;6.40;65.70;;;;;;5063035;28;20484;-84
2022/03/20 08:26:09;;;;;;;0.97;0.73;;;6.60;65.70;;;;;;5059748;28;20479;-85
2022/03/20 08:28:37;;;;;;;3.03;2.83;;;6.60;65.00;;;;;;5070984;28;20464;-85
2022/03/20 08:31:06;;;;;;;0.30;0.20;;;6.80;65.70;;;;;;5069860;28;20548;-85
2022/03/20 08:33:33;;;;;;;0.40;0.40;;;6.80;65.30;;;;;;5067254;28;20543;-85
2022/03/20 08:36:01;;;;;;;0.30;0.20;;;7.10;65.90;;;;;;5061245;28;20497;-85
2022/03/20 08:38:28;;;;;;;0.30;0.20;;;7.20;63.50;;;;;;5065341;28;20470;-85
2022/03/20 08:40:55;;;;;;;0.30;0.20;;;7.20;63.20;;;;;;5058220;28;20518;-85
2022/03/20 08:43:24;;;;;;;0.87;0.87;;;7.10;62.70;;;;;;5056637;28;20488;-85
2022/03/20 08:45:51;;;;;;;0.40;0.33;;;7.30;63.00;;;;;;5060296;28;20486;-86
2022/03/20 08:48:19;;;;;;;0.30;0.20;;;7.30;62.70;;;;;;5051806;28;20464;-86
2022/03/20 08:50:48;;;;;;;0.83;0.83;;;7.40;62.30;;;;;;5060633;28;20943;-86
2022/03/20 08:53:17;;;;;;;1.30;1.20;;;7.50;62.30;;;;;;5060844;28;20502;-86
2022/03/20 08:55:44;;;;;;;0.30;0.20;;;7.50;61.10;;;;;;5058177;28;20459;-84
2022/03/20 08:58:11;;;;;;;0.83;0.83;;;7.50;61.50;;;;;;5066125;28;20480;-86
2022/03/20 09:00:40;;;;;;;0.30;0.10;;;7.50;61.00;;;;;;5068034;28;20480;-85
2022/03/20 09:03:07;;;;;;;0.40;0.30;;;7.60;59.60;;;;;;5067220;28;20908;-85
2022/03/20 09:05:34;;;;;;;0.30;0.20;;;7.70;59.80;;;;;;5055150;28;20465;-87
2022/03/20 09:08:02;;;;;;;0.47;0.40;;;7.80;60.00;;;;;;5068463;28;20475;-85
2022/03/20 09:10:29;;;;;;;0.30;0.10;;;8.00;60.40;;;;;;5059034;28;20491;-85
2022/03/20 09:12:58;;;;;;;0.73;0.73;;;8.10;59.70;;;;;;5058095;28;20524;-85
2022/03/20 09:15:25;;;;;;;0.90;0.60;;;8.20;59.50;;;;;;5066573;28;20477;-85
2022/03/20 09:20:39;;;;;;;0.30;0.20;;;8.20;57.20;;;;;;5060595;28;20440;-85
2022/03/20 09:23:06;;;;;;;0.30;0.20;;;8.50;59.30;;;;;;5068492;28;20522;-86
2022/03/20 09:25:33;;;;;;;0.30;0.20;;;8.60;57.50;;;;;;5068262;28;20495;-85
2022/03/20 09:28:00;;;;;;;0.43;0.27;;;8.50;57.80;;;;;;5071058;28;20891;-85
2022/03/20 09:30:27;;;;;;;3.57;3.33;;;8.60;58.00;;;;;;5068065;28;20863;-85
2022/03/20 09:32:56;;;;;;;0.53;0.53;;;8.60;58.20;;;;;;5066666;28;20471;-85
2022/03/20 09:35:23;;;;;;;0.40;0.20;;;8.70;57.70;;;;;;5066468;28;20929;-87
2022/03/20 09:37:50;;;;;;;0.30;0.20;;;8.80;57.70;;;;;;5069616;28;20954;-85
2022/03/20 09:40:21;;;;;;;0.40;0.40;;;9.00;57.30;;;;;;5071776;28;20609;-87
2022/03/20 09:42:49;;;;;;;0.40;0.20;;;9.20;57.60;;;;;;5067812;28;20492;-86
2022/03/20 09:45:18;;;;;;;1.50;0.67;;;9.30;57.10;;;;;;5068736;28;20493;-86
2022/03/20 09:47:46;;;;;;;1.23;1.13;;;9.40;56.60;;;;;;5072068;28;20969;-85
2022/03/20 09:50:16;;;;;;;0.83;0.83;;;9.40;55.50;;;;;;5068583;28;20516;-87
2022/03/20 09:52:43;;;;;;;0.60;0.47;;;9.50;56.70;;;;;;5065423;28;20487;-85
2022/03/20 09:55:12;;;;;;;0.30;0.20;;;9.50;55.50;;;;;;5071694;28;20469;-87
2022/03/20 09:57:39;;;;;;;0.30;0.20;;;9.40;55.70;;;;;;5071766;28;20836;-85
2022/03/20 10:00:11;;;;;;;1.07;1.07;;;9.50;55.80;;;;;;5074834;28;20467;-85
2022/03/20 10:02:38;;;;;;;0.30;0.20;;;9.80;55.70;;;;;;5066075;28;20494;-85
2022/03/20 10:05:07;;;;;;;0.50;0.50;;;10.00;53.70;;;;;;5067883;28;20448;-89
2022/03/20 10:07:40;;;;;;;0.50;0.50;;;9.80;54.30;;;;;;5063790;28;20460;-85
2022/03/20 10:10:09;;;;;;;0.43;0.43;;;9.70;53.90;;;;;;5072071;28;20501;-85
2022/03/20 10:12:38;;;;;;;4.20;1.03;;;9.70;53.50;;;;;;5066523;28;21214;-85
2022/03/20 10:15:06;;;;;;;0.30;0.20;;;9.70;53.20;;;;;;5060781;28;20500;-85
2022/03/20 10:17:33;;;;;;;0.83;0.30;;;9.60;52.90;;;;;;5070783;28;20458;-87
2022/03/20 10:20:13;;;;;;;1.03;0.93;;;9.80;53.90;;;;;;5065998;28;20499;-85
2022/03/20 10:22:42;;;;;;;0.60;0.60;;;10.10;52.20;;;;;;5058106;28;20468;-89
2022/03/20 10:25:12;;;;;;;0.67;0.30;;;10.10;53.50;;;;;;5057399;28;20608;-88
2022/03/20 10:27:39;;;;;;;2.20;2.00;;;10.50;52.40;;;;;;5067624;28;20474;-87
2022/03/20 10:30:10;;;;;;;1.33;0.50;;;10.50;50.90;;;;;;5063692;28;20978;-86
2022/03/20 10:36:14;;;;;;;0.30;0.10;;;10.30;51.30;;;;;;5077351;28;21083;-86
2022/03/20 10:38:44;;;;;;;0.40;0.30;;;10.50;49.90;;;;;;5064288;28;20512;-85
2022/03/20 10:41:21;;;;;;;0.40;0.20;;;10.80;51.80;;;;;;5069730;28;20548;-85
2022/03/20 10:43:49;;;;;;;0.50;0.30;;;10.80;49.50;;;;;;5065825;28;20548;-86
2022/03/20 10:46:21;;;;;;;0.30;0.20;;;10.70;49.70;;;;;;5056735;28;21002;-85
2022/03/20 10:48:50;;;;;;;0.53;0.53;;;10.60;49.90;;;;;;5063292;28;20959;-85
2022/03/20 10:51:37;;;;;;;0.30;0.27;;;10.60;48.60;;;;;;5064941;28;20471;-84
2022/03/20 10:54:08;;;;;;;0.30;0.20;;;10.60;49.30;;;;;;5069741;28;20470;-86
2022/03/20 10:56:36;;;;;;;0.30;0.20;;;11.10;49.60;;;;;;5061606;28;20472;-86
2022/03/20 10:59:14;;;;;;;0.30;0.20;;;11.20;48.60;;;;;;5053648;28;20542;-85
2022/03/20 11:01:43;;;;;;;0.40;0.40;;;11.50;49.80;;;;;;5061780;28;20459;-86
2022/03/20 11:04:12;;;;;;;0.70;0.70;;;11.30;46.70;;;;;;5065485;28;20479;-85
2022/03/20 11:06:41;;;;;;;0.40;0.37;;;11.40;47.60;;;;;;5058014;28;20464;-85
2022/03/20 11:09:10;;;;;;;0.40;0.33;;;11.60;47.30;;;;;;5053083;28;20453;-84
2022/03/20 11:11:40;;;;;;;0.40;0.40;;;11.80;46.90;;;;;;5054206;28;20452;-86
2022/03/20 11:14:07;;;;;;;0.83;0.47;;;11.70;46.50;;;;;;5051367;28;20502;-85
2022/03/20 11:16:37;;;;;;;0.40;0.33;;;11.40;46.00;;;;;;5064993;28;20517;-84
2022/03/20 11:19:06;;;;;;;0.40;0.30;;;11.30;47.20;;;;;;5063555;28;20491;-87
2022/03/20 11:21:37;;;;;;;1.37;0.30;;;11.50;47.70;;;;;;5064851;28;20465;-85
2022/03/20 11:24:06;;;;;;;0.30;0.20;;;11.70;47.40;;;;;;5061984;28;20484;-86
2022/03/20 11:26:39;;;;;;;0.50;0.50;;;12.20;45.70;;;;;;5064189;28;20452;-85
2022/03/20 11:29:08;;;;;;;0.70;0.20;;;12.00;41.00;;;;;;5067253;28;20460;-86
2022/03/20 11:31:37;;;;;;;0.33;0.27;;;12.20;42.50;;;;;;5068524;28;20464;-86
2022/03/20 11:34:05;;;;;;;0.40;0.40;;;12.60;42.90;;;;;;5069670;28;20468;-85
2022/03/20 11:36:33;;;;;;;0.40;0.30;;;12.60;41.30;;;;;;5070285;28;20547;-86
2022/03/20 11:39:10;;;;;;;0.30;0.20;;;12.70;41.80;;;;;;5064151;28;20931;-86
2022/03/20 11:41:39;;;;;;;0.40;0.30;;;12.70;40.60;;;;;;5057675;28;20461;-85
2022/03/20 11:44:20;;;;;;;0.53;0.40;;;12.60;40.50;;;;;;5072520;28;20484;-86
2022/03/20 11:46:50;;;;;;;0.40;0.40;;;12.40;40.40;;;;;;5057991;28;21102;-85
2022/03/20 11:49:22;;;;;;;0.40;0.30;;;12.80;41.30;;;;;;5069198;28;20464;-86
2022/03/20 11:52:05;;;;;;;0.30;0.20;;;13.10;42.20;;;;;;5064337;28;20475;-85
2022/03/20 11:55:00;;;;;;;0.30;0.20;;;13.50;41.80;;;;;;5053055;28;20477;-85
2022/03/20 11:57:45;;;;;;;0.40;0.27;;;13.30;40.90;;;;;;5050668;28;20940;-86
2022/03/20 12:00:18;;;;;;;0.30;0.20;;;13.00;40.00;;;;;;5051232;28;20436;-85
2022/03/20 12:02:54;;;;;;;0.40;0.30;;;12.90;39.80;;;;;;5051096;28;20468;-85
2022/03/20 12:05:34;;;;;;;0.30;0.20;;;12.80;39.80;;;;;;5070032;28;20552;-86
2022/03/20 12:08:17;;;;;;;0.30;0.20;;;12.80;39.00;;;;;;5059168;28;20972;-87
2022/03/20 12:10:57;;;;;;;0.40;0.20;;;12.80;40.70;;;;;;5069163;28;20452;-85
2022/03/20 12:13:32;;;;;;;2.23;1.50;;;12.90;39.70;;;;;;5060761;28;20460;-85
2022/03/20 12:15:59;;;;;;;0.63;0.40;;;13.00;39.40;;;;;;5060257;28;20448;-85
2022/03/20 12:18:26;;;;;;;0.60;0.20;;;12.60;39.00;;;;;;5059544;28;20475;-86
2022/03/20 12:21:02;;;;;;;0.30;0.20;;;12.80;39.30;;;;;;5068982;28;20514;-85
2022/03/20 12:23:35;;;;;;;0.43;0.30;;;12.80;38.40;;;;;;5063679;28;20460;-85
2022/03/20 12:26:36;;;;;;;0.50;0.50;;;12.80;38.10;;;;;;5063045;28;20465;-85
2022/03/20 12:29:32;;;;;;;2.97;1.17;;;13.10;38.70;;;;;;5068850;28;20448;-85
2022/03/20 12:32:01;;;;;;;0.80;0.80;;;12.80;37.60;;;;;;5035023;28;20868;-87
2022/03/20 12:34:28;;;;;;;0.30;0.20;;;13.00;38.70;;;;;;5068458;28;20931;-86
2022/03/20 12:36:55;;;;;;;0.30;0.30;;;13.00;37.70;;;;;;5069075;28;20522;-85
2022/03/20 12:39:52;;;;;;;0.30;0.20;;;13.40;38.50;;;;;;5052035;28;20448;-86
2022/03/20 12:42:19;;;;;;;0.93;0.40;;;13.60;37.00;;;;;;5061600;28;20535;-86
2022/03/20 12:44:49;;;;;;;0.30;0.20;;;13.70;36.60;;;;;;5069101;28;20483;-85
2022/03/20 12:47:18;;;;;;;0.40;0.40;;;13.50;36.50;;;;;;5055685;28;21131;-84
2022/03/20 12:49:48;;;;;;;1.23;0.67;;;13.40;36.10;;;;;;5066822;28;20547;-85
2022/03/20 12:52:17;;;;;;;0.30;0.20;;;13.80;37.80;;;;;;5066278;28;20460;-85
2022/03/20 12:54:54;;;;;;;0.40;0.20;;;13.80;36.10;;;;;;5065912;28;20575;-89
2022/03/20 12:57:36;;;;;;;0.37;0.23;;;13.70;35.10;;;;;;5071531;28;20444;-87
2022/03/20 13:00:11;;;;;;;0.70;0.70;;;13.80;35.50;;;;;;5055606;28;20463;-86
2022/03/20 13:03:00;;;;;;;0.60;0.60;;;13.90;36.80;;;;;;5060131;28;20452;-86
2022/03/20 13:05:29;;;;;;;0.33;0.23;;;13.90;36.20;;;;;;5068268;28;20609;-88
2022/03/20 13:07:57;;;;;;;2.00;0.73;;;14.00;36.40;;;;;;5064808;28;20501;-86
2022/03/20 13:10:25;;;;;;;0.30;0.20;;;13.80;34.50;;;;;;5075392;28;20467;-86
2022/03/20 13:12:54;;;;;;;0.40;0.30;;;14.00;35.30;;;;;;5072882;28;20799;-87
2022/03/20 13:15:24;;;;;;;0.30;0.20;;;14.00;34.60;;;;;;5055054;28;20492;-87
2022/03/20 13:17:51;;;;;;;0.60;0.40;;;13.80;35.10;;;;;;5073901;28;20484;-88
2022/03/20 13:20:20;;;;;;;0.30;0.20;;;13.90;34.20;;;;;;5062836;28;20461;-86
2022/03/20 13:22:47;;;;;;;0.73;0.30;;;14.00;34.00;;;;;;5067358;28;20474;-86
2022/03/20 13:25:16;;;;;;;0.40;0.20;;;13.70;33.00;;;;;;5063142;28;20612;-87
2022/03/20 13:27:46;;;;;;;0.73;0.33;;;13.60;33.50;;;;;;5074589;28;20452;-86
2022/03/20 13:30:14;;;;;;;0.40;0.30;;;13.60;33.20;;;;;;5062538;28;20919;-87
2022/03/20 13:32:44;;;;;;;0.40;0.20;;;13.80;32.50;;;;;;5062191;28;20977;-87
2022/03/20 13:35:11;;;;;;;0.40;0.30;;;13.70;33.40;;;;;;5067532;28;20482;-85
2022/03/20 13:37:39;;;;;;;0.30;0.20;;;13.20;31.80;;;;;;5065393;28;20793;-85
2022/03/20 13:40:07;;;;;;;0.40;0.30;;;13.40;34.30;;;;;;5066895;28;20468;-85
2022/03/20 13:42:36;;;;;;;0.40;0.30;;;13.00;34.00;;;;;;5073324;28;20468;-86
2022/03/20 13:45:04;;;;;;;0.30;0.20;;;13.10;36.40;;;;;;5069164;28;20487;-85